Baltimora, MD (21206)

08:16 PM EDT del 24 Settembre 2016 (GMT -0400)
Thompson - Parkville | | Change Station

Alt. 330 ft 39.36 °N, 76.54 °W | Updated 26 seconds ago

Partly Cloudy
Parzialmente nuvoloso
62.7 °F
Sembra 62.7 °F
N
0.0
Vento Variabile Vento da Sud

Oggi
Massima -- | Minima -- °F
--% Possibilità di precip.
Ieri
Massima -- | Minima -- °F
Precip. -- in
Pressione 30.11 in
Visibilità 10.0 miglia
Nuvole Alcuni 3000 ft
Punto di rugiada 58 °F
Umidità 85%
Piovosità 0.00 in
Spessore del manto nevoso Non disponibile.
6:56 AM 6:59 PM
Luna calante, 33% visible
METAR KBWI 242354Z 00000KT 10SM FEW030 18/14 A3011 RMK AO2 SLP196 T01780144 10222 20178 53009
Pressione 30.11 in
Visibilità 10.0 miglia
Nuvole Alcuni 3000 ft
Punto di rugiada 58 °F
Umidità 85%
Piovosità 0.00 in
Spessore del manto nevoso Non disponibile.
6:56 AM 6:59 PM
Luna calante, 33% visible
METAR KBWI 242354Z 00000KT 10SM FEW030 18/14 A3011 RMK AO2 SLP196 T01780144 10222 20178 53009

10-Day Weather Forecast

Almanac

Astronomia

Sep. 24, 2016 Alba Tramonto
Ora attuale
Crepuscolo civile
Crepuscolo nautico
Crepuscolo astronomico
Luna
Estensione della luce visibile
Lunghezza del giorno
Tomorrow will be .
, % of the Moon is Illuminated

Gli estremi di oggi

State Highs State Lows

Community

WunderPhotos

Upload Photos

1,941,477 foto caricate!

WunderBlog® & News

Nearby

Qualità dell'aria

  Qualità dell'aria Indice AQ Inquinante
Not available.

Profondità neve

Stazione Profondità Altitudine

Attività sismica

Città  Distanza Mag. Data & Ora
Minimo Magnitudo Mostrato è 2.5.

Temperature delle acque costiere

Località Temperatura

Stations

Stazioni meteo nelle vicinanze

Ubicazione della stazione Temp. Raffreddamento del vento Punto di rugiada Umidità Vento Precip. Alt. Aggiornato Tipo
                   

Watches & Warnings

There are currently no watches in effect.